createdAt,value
2023-05-17T00:00:01.749Z,5.90
2023-05-17T00:02:28.760Z,5.80
2023-05-17T00:04:56.298Z,5.80
2023-05-17T00:07:23.432Z,5.80
2023-05-17T00:09:50.392Z,5.80
2023-05-17T00:12:17.381Z,5.80
2023-05-17T00:14:44.360Z,5.80
2023-05-17T00:17:11.524Z,5.80
2023-05-17T00:19:38.536Z,5.70
2023-05-17T00:22:05.631Z,5.70
2023-05-17T00:24:32.574Z,5.70
2023-05-17T00:26:59.550Z,5.70
2023-05-17T00:29:26.503Z,5.60
2023-05-17T00:31:53.573Z,5.60
2023-05-17T00:34:20.635Z,5.50
2023-05-17T00:36:47.594Z,5.50
2023-05-17T00:39:14.782Z,5.50
2023-05-17T00:41:42.217Z,5.40
2023-05-17T00:44:09.247Z,5.40
2023-05-17T00:46:36.425Z,5.40
2023-05-17T00:49:03.841Z,5.40
2023-05-17T00:51:31.716Z,5.40
2023-05-17T00:53:59.183Z,5.40
2023-05-17T00:56:26.168Z,5.40
2023-05-17T00:58:54.738Z,5.40
2023-05-17T01:01:22.738Z,5.40
2023-05-17T01:03:49.944Z,5.30
2023-05-17T01:06:17.170Z,5.20
2023-05-17T01:08:44.630Z,5.20
2023-05-17T01:11:12.992Z,5.20
2023-05-17T01:13:58.547Z,5.10
2023-05-17T01:16:36.992Z,5.20
2023-05-17T01:19:25.874Z,5.10
2023-05-17T01:22:29.615Z,5.00
2023-05-17T01:25:16.274Z,5.00
2023-05-17T01:27:45.632Z,5.00
2023-05-17T01:30:13.904Z,5.00
2023-05-17T01:32:44.778Z,5.00
2023-05-17T01:35:12.762Z,5.00
2023-05-17T01:37:40.054Z,5.00
2023-05-17T01:40:09.063Z,5.00
2023-05-17T01:42:42.830Z,5.00
2023-05-17T01:45:25.079Z,5.00
2023-05-17T01:48:23.466Z,5.00
2023-05-17T01:50:54.629Z,5.00
2023-05-17T01:53:33.191Z,5.10
2023-05-17T01:56:13.571Z,5.00
2023-05-17T01:58:47.615Z,4.90
2023-05-17T02:01:19.716Z,5.00
2023-05-17T02:03:50.820Z,5.00
2023-05-17T02:06:18.145Z,4.90
2023-05-17T02:08:45.375Z,4.90
2023-05-17T02:11:13.137Z,5.00
2023-05-17T02:13:40.641Z,5.00
2023-05-17T02:16:08.149Z,5.00
2023-05-17T02:18:37.902Z,5.10
2023-05-17T02:21:05.425Z,5.10
2023-05-17T02:23:32.507Z,5.20
2023-05-17T02:25:59.522Z,5.20
2023-05-17T02:28:27.843Z,5.20
2023-05-17T02:30:56.610Z,5.30
2023-05-17T02:33:23.978Z,5.30
2023-05-17T02:35:51.288Z,5.30
2023-05-17T02:38:19.852Z,5.30
2023-05-17T02:40:46.859Z,5.20
2023-05-17T02:43:13.898Z,5.10
2023-05-17T02:45:40.910Z,5.10
2023-05-17T02:48:07.998Z,5.10
2023-05-17T02:50:35.121Z,5.10
2023-05-17T02:53:02.194Z,5.00
2023-05-17T02:55:29.528Z,5.10
2023-05-17T02:57:56.812Z,5.10
2023-05-17T03:00:24.877Z,5.10
2023-05-17T03:02:52.390Z,5.10
2023-05-17T03:05:19.449Z,5.10
2023-05-17T03:07:49.882Z,5.00
2023-05-17T03:10:17.098Z,5.00
2023-05-17T03:12:46.047Z,5.00
2023-05-17T03:15:14.530Z,5.00
2023-05-17T03:17:41.610Z,4.90
2023-05-17T03:20:10.135Z,4.80
2023-05-17T03:22:37.215Z,4.80
2023-05-17T03:25:05.946Z,4.80
2023-05-17T03:27:33.928Z,4.80
2023-05-17T03:30:01.998Z,4.90
2023-05-17T03:32:30.856Z,4.80
2023-05-17T03:34:58.362Z,4.80
2023-05-17T03:37:26.699Z,4.80
2023-05-17T03:39:53.711Z,4.80
2023-05-17T03:42:20.914Z,4.70
2023-05-17T03:44:48.724Z,4.70
2023-05-17T03:47:16.038Z,4.70
2023-05-17T03:49:43.929Z,4.70
2023-05-17T03:52:11.619Z,4.60
2023-05-17T03:54:38.971Z,4.50
2023-05-17T03:57:06.197Z,4.50
2023-05-17T03:59:33.255Z,4.40
2023-05-17T04:02:00.539Z,4.40
2023-05-17T04:04:27.786Z,4.30
2023-05-17T04:06:54.886Z,4.20
2023-05-17T04:09:21.897Z,4.20
2023-05-17T04:11:48.898Z,4.20
2023-05-17T04:14:17.651Z,4.20
2023-05-17T04:16:45.221Z,4.20
2023-05-17T04:19:12.380Z,4.20
2023-05-17T04:21:40.134Z,4.20
2023-05-17T04:24:07.880Z,4.30
2023-05-17T04:26:34.982Z,4.20
2023-05-17T04:29:02.005Z,4.20
2023-05-17T04:31:29.091Z,4.20
2023-05-17T04:33:56.295Z,4.30
2023-05-17T04:36:23.721Z,4.30
2023-05-17T04:38:51.370Z,4.30
2023-05-17T04:41:23.211Z,4.40
2023-05-17T04:43:50.269Z,4.40
2023-05-17T04:46:24.453Z,4.40
2023-05-17T04:48:51.623Z,4.40
2023-05-17T04:51:18.745Z,4.40
2023-05-17T04:53:45.938Z,4.50
2023-05-17T04:56:16.949Z,4.50
2023-05-17T04:58:45.376Z,4.50
2023-05-17T05:01:13.077Z,4.60
2023-05-17T05:03:40.480Z,4.60
2023-05-17T05:06:09.057Z,4.60
2023-05-17T05:08:37.671Z,4.70
2023-05-17T05:11:07.160Z,4.70
2023-05-17T05:13:34.323Z,4.80
2023-05-17T05:16:01.386Z,4.80
2023-05-17T05:18:32.473Z,4.80
2023-05-17T05:21:00.266Z,4.90
2023-05-17T05:23:27.372Z,4.90
2023-05-17T05:25:54.821Z,5.00
2023-05-17T05:28:21.870Z,5.00
2023-05-17T05:30:49.203Z,5.10
2023-05-17T05:33:16.631Z,5.20
2023-05-17T05:35:43.837Z,5.30
2023-05-17T05:38:10.918Z,5.30
2023-05-17T05:41:48.140Z,5.30
2023-05-17T05:44:15.291Z,5.40
2023-05-17T05:46:42.432Z,5.50
2023-05-17T05:49:09.554Z,5.50
2023-05-17T05:51:37.626Z,5.60
2023-05-17T05:54:04.669Z,5.60
2023-05-17T05:56:31.739Z,5.60
2023-05-17T05:58:58.853Z,5.70
2023-05-17T06:01:26.715Z,5.70
2023-05-17T06:03:53.734Z,5.70
2023-05-17T06:06:20.888Z,5.70
2023-05-17T06:08:48.008Z,5.80
2023-05-17T06:11:15.115Z,5.80
2023-05-17T06:13:42.239Z,5.90
2023-05-17T06:16:09.267Z,5.90
2023-05-17T06:18:36.375Z,5.90
2023-05-17T06:21:03.625Z,5.90
2023-05-17T06:23:30.714Z,6.00
2023-05-17T06:25:57.750Z,6.10
2023-05-17T06:28:24.800Z,6.10
2023-05-17T06:30:51.847Z,6.10
2023-05-17T06:33:19.088Z,6.20
2023-05-17T06:35:56.007Z,6.30
2023-05-17T06:38:24.867Z,6.40
2023-05-17T06:40:54.174Z,6.50
2023-05-17T06:43:21.365Z,6.60
2023-05-17T06:45:48.484Z,6.80
2023-05-17T06:48:16.027Z,6.90
2023-05-17T06:50:43.257Z,6.90
2023-05-17T06:53:10.329Z,7.00
2023-05-17T06:55:37.690Z,7.10
2023-05-17T06:58:04.872Z,7.20
2023-05-17T07:00:32.448Z,7.30
2023-05-17T07:03:00.191Z,7.30
2023-05-17T07:05:29.508Z,7.40
2023-05-17T07:07:58.660Z,7.50
2023-05-17T07:10:25.929Z,7.70
2023-05-17T07:12:53.617Z,7.80
2023-05-17T07:15:20.743Z,7.90
2023-05-17T07:17:47.853Z,7.90
2023-05-17T07:20:15.119Z,8.00
2023-05-17T07:22:42.279Z,8.10
2023-05-17T07:25:10.111Z,8.10
2023-05-17T07:27:37.280Z,8.10
2023-05-17T07:30:04.878Z,8.00
2023-05-17T07:32:31.993Z,7.90
2023-05-17T07:34:59.045Z,7.90
2023-05-17T07:37:26.135Z,8.00
2023-05-17T07:39:53.298Z,8.10
2023-05-17T07:42:20.316Z,8.10
2023-05-17T07:44:48.802Z,8.20
2023-05-17T07:47:16.509Z,8.20
2023-05-17T07:49:43.689Z,8.30
2023-05-17T07:52:10.756Z,8.30
2023-05-17T07:54:37.945Z,8.30
2023-05-17T07:57:05.001Z,8.40
2023-05-17T07:59:32.108Z,8.40
2023-05-17T08:01:59.103Z,8.50
2023-05-17T08:04:26.390Z,8.60
2023-05-17T08:06:54.572Z,8.70
2023-05-17T08:09:21.686Z,8.80
2023-05-17T08:11:48.776Z,8.90
2023-05-17T08:14:16.807Z,8.90
2023-05-17T08:16:45.498Z,8.90
2023-05-17T08:19:14.946Z,8.90
2023-05-17T08:21:43.236Z,8.90
2023-05-17T08:24:10.448Z,8.80
2023-05-17T08:26:37.735Z,8.80
2023-05-17T08:29:05.168Z,8.90
2023-05-17T08:31:33.012Z,9.00
2023-05-17T08:34:00.183Z,9.00
2023-05-17T08:36:28.558Z,9.10
2023-05-17T08:38:55.623Z,9.10
2023-05-17T08:41:22.943Z,9.00
2023-05-17T08:43:51.158Z,9.00
2023-05-17T08:46:22.030Z,8.90
2023-05-17T08:49:00.234Z,9.00
2023-05-17T08:51:28.007Z,9.10
2023-05-17T08:53:55.788Z,9.40
2023-05-17T08:56:25.935Z,9.50
2023-05-17T08:58:57.938Z,9.60
2023-05-17T09:01:26.791Z,9.80
2023-05-17T09:03:54.925Z,9.80
2023-05-17T09:06:23.688Z,9.70
2023-05-17T09:08:53.007Z,9.80
2023-05-17T09:11:27.023Z,9.90
2023-05-17T09:13:54.175Z,10.10
2023-05-17T09:16:24.166Z,10.10
2023-05-17T09:18:55.804Z,10.20
2023-05-17T09:21:23.974Z,10.40
2023-05-17T09:24:05.665Z,10.40
2023-05-17T09:26:42.811Z,10.20
2023-05-17T09:29:11.892Z,10.10
2023-05-17T09:31:40.268Z,9.90
2023-05-17T09:34:08.551Z,9.90
2023-05-17T09:36:38.602Z,10.10
2023-05-17T09:39:06.826Z,10.20
2023-05-17T09:41:42.404Z,10.10
2023-05-17T09:44:10.570Z,10.10
2023-05-17T09:46:48.911Z,10.10
2023-05-17T09:49:18.059Z,10.10
2023-05-17T09:51:47.752Z,10.00
2023-05-17T09:54:14.980Z,10.00
2023-05-17T09:56:42.186Z,9.90
2023-05-17T09:59:14.804Z,9.90
2023-05-17T10:01:45.449Z,9.90
2023-05-17T10:04:13.741Z,9.80
2023-05-17T10:09:15.926Z,9.90
2023-05-17T10:11:47.583Z,10.00
2023-05-17T10:14:27.645Z,10.00
2023-05-17T10:16:56.440Z,10.10
2023-05-17T10:19:24.885Z,10.20
2023-05-17T10:21:53.942Z,10.20
2023-05-17T10:24:24.280Z,10.10
2023-05-17T10:26:52.109Z,10.10
2023-05-17T10:29:21.357Z,10.00
2023-05-17T10:31:51.337Z,9.90
2023-05-17T10:34:20.132Z,9.80
2023-05-17T10:36:49.970Z,9.70
2023-05-17T10:39:16.984Z,9.60
2023-05-17T10:41:46.691Z,9.50
2023-05-17T10:44:14.795Z,9.50
2023-05-17T10:46:52.670Z,9.50
2023-05-17T10:49:24.146Z,9.60
2023-05-17T10:51:52.202Z,9.70
2023-05-17T10:54:19.505Z,9.70
2023-05-17T10:56:52.145Z,9.80
2023-05-17T10:59:23.228Z,9.90
2023-05-17T11:02:27.438Z,9.90
2023-05-17T11:04:56.736Z,10.00
2023-05-17T11:07:27.506Z,10.10
2023-05-17T11:10:08.108Z,10.20
2023-05-17T11:12:44.688Z,10.20
2023-05-17T11:15:18.435Z,10.30
2023-05-17T11:17:54.775Z,10.40
2023-05-17T11:20:28.357Z,10.40
2023-05-17T11:23:05.046Z,10.30
2023-05-17T11:25:40.862Z,10.10
2023-05-17T11:28:28.231Z,9.90
2023-05-17T11:31:01.246Z,9.80
2023-05-17T11:33:45.843Z,9.80
2023-05-17T11:36:20.655Z,9.70
2023-05-17T11:39:10.144Z,9.60
2023-05-17T11:41:48.060Z,9.60
2023-05-17T11:44:16.743Z,9.60
2023-05-17T11:46:44.937Z,9.70
2023-05-17T11:49:15.567Z,9.70
2023-05-17T11:51:50.762Z,9.80
2023-05-17T11:54:19.035Z,9.80
2023-05-17T11:56:46.331Z,10.00
2023-05-17T11:59:22.504Z,9.90
2023-05-17T12:01:51.175Z,9.90
2023-05-17T12:04:26.106Z,10.00
2023-05-17T12:06:56.623Z,10.10
2023-05-17T12:09:24.544Z,10.20
2023-05-17T12:12:04.799Z,10.20
2023-05-17T12:14:32.111Z,10.30
2023-05-17T12:17:30.305Z,10.30
2023-05-17T12:20:07.535Z,10.30
2023-05-17T12:22:34.744Z,10.30
2023-05-17T12:25:31.138Z,10.30
2023-05-17T12:28:22.238Z,10.20
2023-05-17T12:30:54.089Z,10.20
2023-05-17T12:33:21.437Z,10.10
2023-05-17T12:35:48.686Z,10.00
2023-05-17T12:38:16.057Z,10.00
2023-05-17T12:40:43.621Z,10.10
2023-05-17T12:43:11.005Z,10.10
2023-05-17T12:45:41.202Z,10.10
2023-05-17T12:48:08.351Z,10.10
2023-05-17T12:50:35.542Z,10.20
2023-05-17T12:53:09.098Z,10.20
2023-05-17T12:55:39.251Z,10.30
2023-05-17T12:58:06.464Z,10.30
2023-05-17T13:00:33.908Z,10.30
2023-05-17T13:03:01.497Z,10.30
2023-05-17T13:05:28.693Z,10.30
2023-05-17T13:07:55.793Z,10.40
2023-05-17T13:10:26.330Z,10.40
2023-05-17T13:13:00.530Z,10.40
2023-05-17T13:15:32.278Z,10.50
2023-05-17T13:18:00.728Z,10.60
2023-05-17T13:20:28.389Z,10.70
2023-05-17T13:22:55.802Z,10.80
2023-05-17T13:25:22.934Z,10.80
2023-05-17T13:27:49.972Z,11.00
2023-05-17T13:30:17.747Z,11.00
2023-05-17T13:32:45.349Z,11.00
2023-05-17T13:35:12.516Z,11.10
2023-05-17T13:37:40.021Z,11.00
2023-05-17T13:40:08.489Z,11.00
2023-05-17T13:42:37.506Z,10.90
2023-05-17T13:45:05.323Z,10.80
2023-05-17T13:47:32.864Z,10.70
2023-05-17T13:50:04.084Z,10.50
2023-05-17T13:52:31.585Z,10.40
2023-05-17T13:54:58.625Z,10.30
2023-05-17T13:57:34.501Z,10.20
2023-05-17T14:00:01.522Z,10.20
2023-05-17T14:02:28.667Z,10.20
2023-05-17T14:04:55.753Z,10.20
2023-05-17T14:07:23.608Z,10.10
2023-05-17T14:09:50.717Z,10.10
2023-05-17T14:12:17.780Z,10.20
2023-05-17T14:14:44.816Z,10.30
2023-05-17T14:17:12.588Z,10.40
2023-05-17T14:19:39.771Z,10.60
2023-05-17T14:22:08.922Z,10.90
2023-05-17T14:24:36.426Z,11.10
2023-05-17T14:27:03.819Z,11.40
2023-05-17T14:29:32.023Z,11.70
2023-05-17T14:31:59.091Z,11.90
2023-05-17T14:34:26.164Z,11.90
2023-05-17T14:36:53.716Z,11.80
2023-05-17T14:39:21.086Z,11.70
2023-05-17T14:41:48.134Z,11.50
2023-05-17T14:44:15.288Z,11.50
2023-05-17T14:50:39.959Z,11.50
2023-05-17T14:53:07.229Z,11.30
2023-05-17T14:55:34.308Z,11.10
2023-05-17T14:58:02.678Z,11.00
2023-05-17T15:00:30.044Z,11.00
2023-05-17T15:02:57.223Z,10.90
2023-05-17T15:05:24.581Z,10.90
2023-05-17T15:07:51.873Z,11.00
2023-05-17T15:10:18.968Z,11.00
2023-05-17T15:12:46.044Z,11.10
2023-05-17T15:15:13.321Z,11.20
2023-05-17T15:17:40.407Z,11.30
2023-05-17T15:20:10.797Z,11.50
2023-05-17T15:22:37.938Z,11.70
2023-05-17T15:25:05.978Z,11.70
2023-05-17T15:27:33.030Z,11.70
2023-05-17T15:30:00.244Z,11.60
2023-05-17T15:32:27.303Z,11.80
2023-05-17T15:34:54.319Z,12.00
2023-05-17T15:37:21.608Z,12.00
2023-05-17T15:44:09.153Z,12.10
2023-05-17T15:46:36.557Z,12.00
2023-05-17T15:49:03.727Z,11.90
2023-05-17T15:51:31.018Z,11.90
2023-05-17T15:53:58.214Z,11.90
2023-05-17T15:56:25.948Z,11.80
2023-05-17T15:59:23.648Z,11.70
2023-05-17T16:02:09.485Z,11.70
2023-05-17T16:04:36.653Z,11.70
2023-05-17T16:07:04.082Z,11.80
2023-05-17T16:09:57.763Z,12.00
2023-05-17T16:12:32.857Z,12.20
2023-05-17T16:14:59.889Z,12.30
2023-05-17T16:17:27.394Z,12.30
2023-05-17T16:19:54.578Z,12.50
2023-05-17T16:22:21.749Z,12.70
2023-05-17T16:24:53.753Z,12.70
2023-05-17T16:27:20.764Z,12.60
2023-05-17T16:29:47.902Z,12.40
2023-05-17T16:32:15.642Z,12.10
2023-05-17T16:34:42.829Z,11.90
2023-05-17T16:37:09.898Z,11.70
2023-05-17T16:39:37.156Z,11.70
2023-05-17T16:42:04.420Z,11.80
2023-05-17T16:44:31.540Z,11.90
2023-05-17T16:46:58.810Z,12.00
2023-05-17T16:49:26.484Z,12.10
2023-05-17T16:51:53.576Z,12.10
2023-05-17T16:54:20.794Z,12.20
2023-05-17T16:56:47.877Z,12.20
2023-05-17T16:59:15.881Z,12.20
2023-05-17T17:01:43.253Z,12.20
2023-05-17T17:04:10.727Z,12.30
2023-05-17T17:06:38.252Z,12.20
2023-05-17T17:09:08.350Z,12.20
2023-05-17T17:11:35.953Z,12.20
2023-05-17T17:14:03.016Z,12.00
2023-05-17T17:16:31.379Z,11.80
2023-05-17T17:18:59.032Z,11.70
2023-05-17T17:21:26.264Z,11.60
2023-05-17T17:23:53.706Z,11.60
2023-05-17T17:26:21.117Z,11.60
2023-05-17T17:28:48.209Z,11.60
2023-05-17T17:31:15.278Z,11.50
2023-05-17T17:33:42.314Z,11.40
2023-05-17T17:36:11.309Z,11.30
2023-05-17T17:38:38.404Z,11.10
2023-05-17T17:41:05.689Z,11.00
2023-05-17T17:43:32.726Z,11.10
2023-05-17T17:45:59.758Z,11.10
2023-05-17T17:48:26.806Z,11.10
2023-05-17T17:50:53.943Z,11.10
2023-05-17T17:53:22.128Z,11.10
2023-05-17T17:55:49.220Z,11.10
2023-05-17T17:58:16.274Z,11.10
2023-05-17T18:00:43.387Z,11.10
2023-05-17T18:03:10.857Z,11.10
2023-05-17T18:05:38.432Z,11.10
2023-05-17T18:08:10.053Z,11.10
2023-05-17T18:10:37.119Z,11.10
2023-05-17T18:13:04.951Z,11.10
2023-05-17T18:15:32.100Z,11.10
2023-05-17T18:17:59.248Z,11.20
2023-05-17T18:20:26.525Z,11.10
2023-05-17T18:22:54.151Z,11.10
2023-05-17T18:25:21.756Z,11.10
2023-05-17T18:27:48.823Z,11.10
2023-05-17T18:30:16.977Z,11.00
2023-05-17T18:32:44.347Z,11.10
2023-05-17T18:35:11.547Z,11.20
2023-05-17T18:37:38.591Z,11.30
2023-05-17T18:40:06.683Z,11.40
2023-05-17T18:42:39.412Z,11.40
2023-05-17T18:45:07.560Z,11.50
2023-05-17T18:47:34.740Z,11.50
2023-05-17T18:50:01.888Z,11.50
2023-05-17T18:52:28.991Z,11.50
2023-05-17T18:54:55.961Z,11.40
2023-05-17T18:57:23.021Z,11.40
2023-05-17T18:59:50.031Z,11.40
2023-05-17T19:02:16.979Z,11.40
2023-05-17T19:04:44.310Z,11.30
2023-05-17T19:07:11.350Z,11.30
2023-05-17T19:09:38.921Z,11.20
2023-05-17T19:12:06.625Z,11.10
2023-05-17T19:14:33.696Z,11.00
2023-05-17T19:17:00.888Z,10.80
2023-05-17T19:19:27.948Z,10.60
2023-05-17T19:21:54.986Z,10.50
2023-05-17T19:24:22.013Z,10.30
2023-05-17T19:26:49.051Z,10.20
2023-05-17T19:29:16.079Z,10.10
2023-05-17T19:31:43.188Z,10.00
2023-05-17T19:34:10.571Z,9.90
2023-05-17T19:36:37.769Z,9.80
2023-05-17T19:39:04.859Z,9.80
2023-05-17T19:41:31.925Z,9.70
2023-05-17T19:43:59.023Z,9.70
2023-05-17T19:46:26.139Z,9.60
2023-05-17T19:48:53.284Z,9.50
2023-05-17T19:51:20.318Z,9.50
2023-05-17T19:53:53.424Z,9.50
2023-05-17T19:56:23.449Z,9.40
2023-05-17T19:58:52.297Z,9.40
2023-05-17T20:01:19.464Z,9.30
2023-05-17T20:03:46.728Z,9.20
2023-05-17T20:06:15.153Z,9.20
2023-05-17T20:08:42.557Z,9.20
2023-05-17T20:11:09.761Z,9.10
2023-05-17T20:13:40.487Z,9.10
2023-05-17T20:16:14.571Z,9.00
2023-05-17T20:18:45.667Z,9.00
2023-05-17T20:21:18.221Z,9.00
2023-05-17T20:23:45.805Z,8.90
2023-05-17T20:27:04.050Z,8.90
2023-05-17T20:29:31.147Z,8.80
2023-05-17T20:31:59.199Z,8.70
2023-05-17T20:34:28.623Z,8.80
2023-05-17T20:36:57.009Z,8.70
2023-05-17T20:40:39.255Z,8.70
2023-05-17T20:43:59.320Z,8.70
2023-05-17T20:46:29.939Z,8.60
2023-05-17T20:48:58.175Z,8.60
2023-05-17T20:51:27.119Z,8.70
2023-05-17T20:53:54.593Z,8.70
2023-05-17T20:56:21.807Z,8.60
2023-05-17T20:58:49.292Z,8.50
2023-05-17T21:01:16.409Z,8.50
2023-05-17T21:03:43.942Z,8.40
2023-05-17T21:06:11.186Z,8.30
2023-05-17T21:08:38.623Z,8.30
2023-05-17T21:11:05.769Z,8.30
2023-05-17T21:17:45.930Z,8.20
2023-05-17T21:20:13.869Z,8.20
2023-05-17T21:22:40.923Z,8.10
2023-05-17T21:25:37.953Z,8.10
2023-05-17T21:28:06.148Z,8.10
2023-05-17T21:30:33.303Z,8.10
2023-05-17T21:33:00.485Z,8.00
2023-05-17T21:35:27.592Z,7.90
2023-05-17T21:37:54.669Z,7.90
2023-05-17T21:40:21.764Z,7.90
2023-05-17T21:43:00.020Z,7.90
2023-05-17T21:45:27.401Z,7.80
2023-05-17T21:47:55.600Z,7.70
2023-05-17T21:50:22.942Z,7.70
2023-05-17T21:53:44.726Z,7.60
2023-05-17T21:56:12.234Z,7.50
2023-05-17T21:58:39.403Z,7.40
2023-05-17T22:01:07.052Z,7.40
2023-05-17T22:03:34.941Z,7.40
2023-05-17T22:06:02.081Z,7.40
2023-05-17T22:08:29.202Z,7.40
2023-05-17T22:10:57.174Z,7.40
2023-05-17T22:13:26.966Z,7.40
2023-05-17T22:15:57.453Z,7.40
2023-05-17T22:18:27.024Z,7.30
2023-05-17T22:20:55.202Z,7.30
2023-05-17T22:23:22.304Z,7.30
2023-05-17T22:25:49.296Z,7.30
2023-05-17T22:28:16.361Z,7.30
2023-05-17T22:30:45.161Z,7.30
2023-05-17T22:33:12.297Z,7.20
2023-05-17T22:35:41.200Z,7.20
2023-05-17T22:38:08.269Z,7.20
2023-05-17T22:40:35.350Z,7.10
2023-05-17T22:43:02.420Z,7.00
2023-05-17T22:45:33.416Z,7.00
2023-05-17T22:48:03.115Z,6.90
2023-05-17T22:50:33.816Z,6.90
2023-05-17T22:53:01.513Z,7.00
2023-05-17T22:55:31.480Z,7.00
2023-05-17T22:57:59.618Z,7.00
2023-05-17T23:00:27.201Z,6.90
2023-05-17T23:02:54.454Z,6.90
2023-05-17T23:05:22.349Z,6.80
2023-05-17T23:07:49.527Z,6.70
2023-05-17T23:10:16.664Z,6.70
2023-05-17T23:12:43.819Z,6.70
2023-05-17T23:15:12.868Z,6.70
2023-05-17T23:17:41.476Z,6.80
2023-05-17T23:20:10.275Z,6.80
2023-05-17T23:22:39.100Z,6.80
2023-05-17T23:25:08.458Z,6.70
2023-05-17T23:27:36.768Z,6.60
2023-05-17T23:30:05.027Z,6.40
2023-05-17T23:32:34.297Z,6.30
2023-05-17T23:35:05.522Z,6.20
2023-05-17T23:37:33.880Z,6.00
2023-05-17T23:40:02.017Z,5.80
2023-05-17T23:42:29.720Z,5.70
2023-05-17T23:44:56.989Z,5.70
2023-05-17T23:47:24.619Z,5.70
2023-05-17T23:49:52.946Z,5.70
2023-05-17T23:52:20.237Z,5.70
2023-05-17T23:54:47.893Z,5.70
2023-05-17T23:57:15.153Z,5.70
2023-05-17T23:59:43.444Z,5.70
